createdAt,value
2022-10-01T00:01:20.118Z,99239.63
2022-10-01T00:04:24.271Z,99249.98
2022-10-01T00:07:26.546Z,99245.21
2022-10-01T00:10:30.393Z,99236.53
2022-10-01T00:13:32.343Z,99226.30
2022-10-01T00:16:34.729Z,99223.71
2022-10-01T00:19:36.699Z,99222.63
2022-10-01T00:22:39.219Z,99218.88
2022-10-01T00:25:41.499Z,99226.52
2022-10-01T00:28:45.790Z,99231.04
2022-10-01T00:31:47.824Z,99231.10
2022-10-01T00:34:49.794Z,99232.62
2022-10-01T00:37:52.495Z,99231.73
2022-10-01T00:40:54.280Z,99232.11
2022-10-01T00:44:02.259Z,99225.73
2022-10-01T00:47:27.160Z,99226.56
2022-10-01T00:50:33.875Z,99219.96
2022-10-01T00:53:35.707Z,99219.77
2022-10-01T00:56:38.319Z,99218.14
2022-10-01T00:59:40.186Z,99213.23
2022-10-01T01:02:42.383Z,99216.91
2022-10-01T01:05:44.265Z,99221.17
2022-10-01T01:08:46.066Z,99211.51
2022-10-01T01:12:26.522Z,99202.69
2022-10-01T01:15:46.733Z,99195.45
2022-10-01T01:19:13.869Z,99199.20
2022-10-01T01:22:17.404Z,99194.39
2022-10-01T01:25:29.253Z,99199.88
2022-10-01T01:28:53.433Z,99201.50
2022-10-01T01:31:58.981Z,99201.45
2022-10-01T01:35:02.995Z,99209.27
2022-10-01T01:38:11.578Z,99212.89
2022-10-01T01:41:15.807Z,99208.25
2022-10-01T01:44:30.212Z,99204.57
2022-10-01T01:47:34.682Z,99207.54
2022-10-01T01:50:42.647Z,99213.88
2022-10-01T01:53:44.542Z,99215.13
2022-10-01T01:56:46.834Z,99219.30
2022-10-01T01:59:48.876Z,99224.23
2022-10-01T02:02:52.840Z,99228.19
2022-10-01T02:06:07.074Z,99231.58
2022-10-01T02:09:11.706Z,99231.58
2022-10-01T02:12:32.526Z,99235.06
2022-10-01T02:16:04.670Z,99225.15
2022-10-01T02:19:21.233Z,99223.74
2022-10-01T02:22:41.557Z,99218.26
2022-10-01T02:25:47.082Z,99215.41
2022-10-01T02:28:51.653Z,99219.96
2022-10-01T02:31:55.926Z,99215.73
2022-10-01T02:34:59.109Z,99222.71
2022-10-01T02:38:03.693Z,99221.67
2022-10-01T02:41:08.894Z,99220.73
2022-10-01T02:44:15.098Z,99227.02
2022-10-01T02:47:33.501Z,99226.82
2022-10-01T02:50:49.121Z,99222.95
2022-10-01T02:53:55.704Z,99225.76
2022-10-01T02:57:17.362Z,99225.27
2022-10-01T03:00:22.190Z,99227.11
2022-10-01T03:03:26.337Z,99230.84
2022-10-01T03:06:28.543Z,99235.73
2022-10-01T03:09:34.717Z,99245.98
2022-10-01T03:12:36.859Z,99250.36
2022-10-01T03:15:39.445Z,99250.55
2022-10-01T03:18:41.372Z,99247.02
2022-10-01T03:21:43.276Z,99250.47
2022-10-01T03:24:45.213Z,99251.02
2022-10-01T03:27:47.112Z,99254.80
2022-10-01T03:30:48.860Z,99251.13
2022-10-01T03:33:50.693Z,99250.50
2022-10-01T03:36:53.093Z,99249.63
2022-10-01T03:39:54.936Z,99247.64
2022-10-01T03:42:56.801Z,99246.42
2022-10-01T03:45:58.593Z,99247.45
2022-10-01T03:49:01.304Z,99246.39
2022-10-01T03:52:04.632Z,99246.17
2022-10-01T03:55:07.289Z,99247.67
2022-10-01T03:58:09.847Z,99242.63
2022-10-01T04:01:12.161Z,99243.02
2022-10-01T04:04:15.044Z,99237.67
2022-10-01T04:07:16.799Z,99235.42
2022-10-01T04:10:18.630Z,99229.16
2022-10-01T04:13:20.552Z,99231.23
2022-10-01T04:16:22.408Z,99225.23
2022-10-01T04:19:24.191Z,99224.85
2022-10-01T04:22:25.942Z,99232.86
2022-10-01T04:25:28.550Z,99232.20
2022-10-01T04:28:31.623Z,99227.16
2022-10-01T04:31:35.241Z,99227.51
2022-10-01T04:34:52.930Z,99234.85
2022-10-01T04:37:59.308Z,99232.42
2022-10-01T04:41:01.422Z,99221.00
2022-10-01T04:44:03.306Z,99220.58
2022-10-01T04:47:05.763Z,99228.55
2022-10-01T04:50:07.857Z,99231.81
2022-10-01T04:53:09.643Z,99230.88
2022-10-01T04:56:11.372Z,99226.18
2022-10-01T04:59:13.163Z,99225.85
2022-10-01T05:02:15.021Z,99231.06
2022-10-01T05:05:18.443Z,99232.12
2022-10-01T05:08:21.225Z,99231.23
2022-10-01T05:11:22.983Z,99225.02
2022-10-01T05:14:25.058Z,99221.67
2022-10-01T05:17:26.772Z,99215.70
2022-10-01T05:20:29.219Z,99212.19
2022-10-01T05:23:31.403Z,99213.85
2022-10-01T05:26:33.153Z,99220.13
2022-10-01T05:29:35.459Z,99224.63
2022-10-01T05:32:37.962Z,99222.60
2022-10-01T05:35:41.169Z,99227.09
2022-10-01T05:38:43.414Z,99233.38
2022-10-01T05:41:45.345Z,99231.96
2022-10-01T05:44:47.176Z,99226.48
2022-10-01T05:47:55.753Z,99225.02
2022-10-01T05:50:58.978Z,99221.45
2022-10-01T05:54:04.620Z,99229.20
2022-10-01T05:57:08.097Z,99232.51
2022-10-01T06:00:10.591Z,99235.02
2022-10-01T06:03:13.208Z,99240.55
2022-10-01T06:06:15.258Z,99241.20
2022-10-01T06:09:17.113Z,99241.81
2022-10-01T06:12:20.025Z,99238.01
2022-10-01T06:15:21.912Z,99240.71
2022-10-01T06:18:23.759Z,99232.58
2022-10-01T06:21:25.921Z,99228.64
2022-10-01T06:24:27.664Z,99226.48
2022-10-01T06:27:29.477Z,99231.06
2022-10-01T06:30:33.190Z,99232.25
2022-10-01T06:33:35.558Z,99226.97
2022-10-01T06:36:37.261Z,99223.91
2022-10-01T06:39:39.109Z,99219.61
2022-10-01T06:42:47.556Z,99217.69
2022-10-01T06:45:49.502Z,99213.05
2022-10-01T06:48:51.282Z,99213.08
2022-10-01T06:52:11.819Z,99209.16
2022-10-01T06:55:16.620Z,99212.83
2022-10-01T06:58:22.684Z,99211.02
2022-10-01T07:01:24.562Z,99209.52
2022-10-01T07:04:26.425Z,99208.12
2022-10-01T07:07:31.463Z,99206.64
2022-10-01T07:10:34.962Z,99212.23
2022-10-01T07:13:36.694Z,99212.90
2022-10-01T07:16:39.517Z,99209.88
2022-10-01T07:19:41.434Z,99210.14
2022-10-01T07:22:44.485Z,99211.52
2022-10-01T07:25:46.858Z,99202.79
2022-10-01T07:28:48.576Z,99199.00
2022-10-01T07:32:00.933Z,99202.95
2022-10-01T07:35:02.943Z,99200.90
2022-10-01T07:38:06.645Z,99187.11
2022-10-01T07:41:09.202Z,99179.04
2022-10-01T07:44:13.843Z,99181.70
2022-10-01T07:47:15.649Z,99183.92
2022-10-01T07:50:17.372Z,99179.73
2022-10-01T07:53:19.749Z,99166.53
2022-10-01T07:56:22.226Z,99154.69
2022-10-01T07:59:24.638Z,99158.20
2022-10-01T08:02:26.585Z,99167.50
2022-10-01T08:05:32.063Z,99165.06
2022-10-01T08:08:33.949Z,99169.10
2022-10-01T08:11:38.166Z,99171.01
2022-10-01T08:14:40.005Z,99167.64
2022-10-01T08:17:42.506Z,99169.84
2022-10-01T08:20:44.488Z,99168.31
2022-10-01T08:23:46.485Z,99162.13
2022-10-01T08:26:53.642Z,99162.39
2022-10-01T08:29:55.699Z,99156.11
2022-10-01T08:32:58.799Z,99152.33
2022-10-01T08:36:05.066Z,99148.52
2022-10-01T08:39:07.309Z,99144.89
2022-10-01T08:42:26.191Z,99147.72
2022-10-01T08:45:49.560Z,99141.73
2022-10-01T08:49:06.717Z,99142.50
2022-10-01T08:52:29.998Z,99136.04
2022-10-01T08:55:36.645Z,99136.46
2022-10-01T08:58:44.734Z,99131.70
2022-10-01T09:01:46.538Z,99122.63
2022-10-01T09:04:52.006Z,99118.96
2022-10-01T09:08:16.319Z,99119.88
2022-10-01T09:11:38.882Z,99116.67
2022-10-01T09:14:49.795Z,99113.98
2022-10-01T09:18:12.901Z,99111.87
2022-10-01T09:21:54.624Z,99113.06
2022-10-01T09:25:14.874Z,99113.36
2022-10-01T09:28:30.254Z,99109.60
2022-10-01T09:31:38.387Z,99097.98
2022-10-01T09:34:42.999Z,99101.40
2022-10-01T09:37:56.121Z,99101.05
2022-10-01T09:40:59.155Z,99102.02
2022-10-01T09:44:01.937Z,99095.98
2022-10-01T09:47:03.873Z,99089.34
2022-10-01T09:50:06.718Z,99089.04
2022-10-01T09:53:18.783Z,99089.16
2022-10-01T09:57:10.171Z,99086.31
2022-10-01T10:00:20.400Z,99085.55
2022-10-01T10:03:30.533Z,99085.34
2022-10-01T10:06:33.064Z,99086.57
2022-10-01T10:09:35.970Z,99085.23
2022-10-01T10:12:37.827Z,99078.96
2022-10-01T10:15:58.324Z,99076.88
2022-10-01T10:19:04.561Z,99075.02
2022-10-01T10:22:12.267Z,99070.67
2022-10-01T10:25:21.237Z,99070.30
2022-10-01T10:28:24.504Z,99066.54
2022-10-01T10:31:28.758Z,99069.14
2022-10-01T10:34:40.657Z,99067.13
2022-10-01T10:37:48.598Z,99065.31
2022-10-01T10:40:51.274Z,99059.33
2022-10-01T10:43:59.285Z,99046.90
2022-10-01T10:47:03.442Z,99041.30
2022-10-01T10:50:06.652Z,99038.81
2022-10-01T10:53:22.641Z,99033.88
2022-10-01T10:56:25.637Z,99024.61
2022-10-01T10:59:29.840Z,99019.73
2022-10-01T11:02:33.337Z,99012.80
2022-10-01T11:05:41.765Z,99007.66
2022-10-01T11:08:44.186Z,98999.48
2022-10-01T11:12:01.963Z,98991.27
2022-10-01T11:15:16.664Z,98986.44
2022-10-01T11:18:41.661Z,98973.34
2022-10-01T11:22:02.360Z,98965.23
2022-10-01T11:25:22.813Z,98951.83
2022-10-01T11:28:46.292Z,98941.61
2022-10-01T11:32:03.222Z,98940.42
2022-10-01T11:35:18.759Z,98934.43
2022-10-01T11:38:36.389Z,98927.89
2022-10-01T11:41:45.055Z,98919.60
2022-10-01T11:45:00.524Z,98918.79
2022-10-01T11:48:33.047Z,98923.36
2022-10-01T11:51:39.839Z,98923.23
2022-10-01T11:55:31.482Z,98920.41
2022-10-01T11:58:52.877Z,98912.55
2022-10-01T12:02:15.419Z,98898.76
2022-10-01T12:05:20.621Z,98894.85
2022-10-01T12:08:27.302Z,98889.30
2022-10-01T12:11:35.462Z,98890.96
2022-10-01T12:14:49.341Z,98891.15
2022-10-01T12:18:13.344Z,98893.25
2022-10-01T12:21:28.011Z,98895.41
2022-10-01T12:24:33.360Z,98893.55
2022-10-01T12:28:02.925Z,98882.05
2022-10-01T12:31:33.426Z,98874.54
2022-10-01T12:34:54.244Z,98866.84
2022-10-01T12:38:24.261Z,98861.66
2022-10-01T12:41:36.070Z,98860.39
2022-10-01T12:44:45.918Z,98856.73
2022-10-01T12:48:03.761Z,98849.16
2022-10-01T12:51:11.319Z,98842.80
2022-10-01T12:54:39.154Z,98839.41
2022-10-01T12:57:51.976Z,98835.66
2022-10-01T13:00:57.288Z,98833.63
2022-10-01T13:04:07.975Z,98833.48
2022-10-01T13:07:31.775Z,98824.80
2022-10-01T13:10:36.207Z,98821.48
2022-10-01T13:13:38.819Z,98817.15
2022-10-01T13:16:56.701Z,98818.48
2022-10-01T13:20:06.431Z,98816.16
2022-10-01T13:23:39.525Z,98817.40
2022-10-01T13:27:13.219Z,98814.72
2022-10-01T13:30:26.128Z,98808.20
2022-10-01T13:33:32.284Z,98801.40
2022-10-01T13:36:36.733Z,98805.59
2022-10-01T13:39:42.283Z,98800.83
2022-10-01T13:42:46.312Z,98797.70
2022-10-01T13:45:50.755Z,98794.94
2022-10-01T13:48:52.717Z,98790.11
2022-10-01T13:51:54.976Z,98791.11
2022-10-01T13:54:58.002Z,98786.05
2022-10-01T13:58:19.507Z,98782.76
2022-10-01T14:01:24.291Z,98775.50
2022-10-01T14:04:40.898Z,98772.86
2022-10-01T14:07:43.983Z,98768.95
2022-10-01T14:11:10.145Z,98764.54
2022-10-01T14:14:51.651Z,98760.59
2022-10-01T14:17:53.413Z,98752.56
2022-10-01T14:21:21.005Z,98751.40
2022-10-01T14:24:33.729Z,98754.72
2022-10-01T14:27:54.429Z,98750.15
2022-10-01T14:31:07.643Z,98742.63
2022-10-01T14:34:33.876Z,98735.80
2022-10-01T14:37:39.467Z,98731.79
2022-10-01T14:40:43.506Z,98731.01
2022-10-01T14:43:45.511Z,98727.10
2022-10-01T14:46:47.361Z,98719.52
2022-10-01T14:49:50.099Z,98715.65
2022-10-01T14:52:53.285Z,98714.45
2022-10-01T14:55:57.406Z,98712.98
2022-10-01T14:59:03.449Z,98708.27
2022-10-01T15:02:18.517Z,98705.88
2022-10-01T15:05:23.144Z,98701.14
2022-10-01T15:08:49.670Z,98699.54
2022-10-01T15:11:52.002Z,98691.29
2022-10-01T15:14:54.640Z,98681.92
2022-10-01T15:17:57.170Z,98691.26
2022-10-01T15:21:02.761Z,98693.79
2022-10-01T15:24:06.631Z,98685.80
2022-10-01T15:27:09.972Z,98683.85
2022-10-01T15:30:15.803Z,98684.00
2022-10-01T15:33:33.341Z,98678.29
2022-10-01T15:36:36.029Z,98675.92
2022-10-01T15:39:40.033Z,98674.58
2022-10-01T15:43:12.225Z,98673.27
2022-10-01T15:46:29.386Z,98669.63
2022-10-01T15:49:31.293Z,98661.00
2022-10-01T15:52:53.960Z,98657.27
2022-10-01T15:55:58.547Z,98662.65
2022-10-01T15:59:29.777Z,98663.43
2022-10-01T16:02:32.081Z,98667.08
2022-10-01T16:05:44.466Z,98666.05
2022-10-01T16:09:03.249Z,98670.91
2022-10-01T16:12:20.394Z,98668.27
2022-10-01T16:15:30.142Z,98667.80
2022-10-01T16:18:34.786Z,98663.64
2022-10-01T16:21:40.539Z,98663.09
2022-10-01T16:24:54.887Z,98664.70
2022-10-01T16:28:03.962Z,98662.24
2022-10-01T16:31:06.073Z,98659.27
2022-10-01T16:34:12.499Z,98657.72
2022-10-01T16:37:14.243Z,98655.39
2022-10-01T16:40:17.652Z,98651.56
2022-10-01T16:43:24.508Z,98657.52
2022-10-01T16:46:26.465Z,98660.73
2022-10-01T16:49:28.346Z,98653.64
2022-10-01T16:52:30.177Z,98654.88
2022-10-01T16:55:36.013Z,98655.91
2022-10-01T16:58:39.010Z,98649.30
2022-10-01T17:01:40.754Z,98646.94
2022-10-01T17:04:42.570Z,98645.81
2022-10-01T17:07:45.307Z,98648.25
2022-10-01T17:10:59.293Z,98643.98
2022-10-01T17:14:08.282Z,98645.84
2022-10-01T17:17:10.201Z,98648.77
2022-10-01T17:20:12.362Z,98647.38
2022-10-01T17:23:15.986Z,98649.83
2022-10-01T17:26:17.819Z,98646.52
2022-10-01T17:29:19.591Z,98641.05
2022-10-01T17:32:21.568Z,98636.77
2022-10-01T17:35:23.474Z,98630.84
2022-10-01T17:38:25.354Z,98628.36
2022-10-01T17:41:27.498Z,98625.42
2022-10-01T17:44:29.455Z,98620.67
2022-10-01T17:47:31.449Z,98623.70
2022-10-01T17:50:33.454Z,98625.03
2022-10-01T17:53:42.138Z,98621.45
2022-10-01T17:56:44.911Z,98614.93
2022-10-01T17:59:47.782Z,98619.41
2022-10-01T18:02:49.635Z,98620.13
2022-10-01T18:05:54.521Z,98624.92
2022-10-01T18:08:56.961Z,98622.57
2022-10-01T18:11:59.670Z,98615.95
2022-10-01T18:15:02.158Z,98614.80
2022-10-01T18:21:25.901Z,98618.29
2022-10-01T18:24:28.857Z,98620.81
2022-10-01T18:27:31.102Z,98616.91
2022-10-01T18:30:33.045Z,98619.57
2022-10-01T18:33:34.945Z,98621.34
2022-10-01T18:36:36.972Z,98618.15
2022-10-01T18:39:49.974Z,98616.15
2022-10-01T18:43:07.303Z,98618.66
2022-10-01T18:46:15.005Z,98625.33
2022-10-01T18:49:29.079Z,98629.13
2022-10-01T18:52:35.980Z,98635.80
2022-10-01T18:56:22.312Z,98635.48
2022-10-01T19:00:02.513Z,98637.45
2022-10-01T19:03:16.701Z,98631.58
2022-10-01T19:06:21.286Z,98629.69
2022-10-01T19:09:39.631Z,98634.10
2022-10-01T19:12:53.047Z,98631.89
2022-10-01T19:16:22.987Z,98630.41
2022-10-01T19:19:27.896Z,98627.03
2022-10-01T19:22:51.858Z,98624.23
2022-10-01T19:26:11.076Z,98623.20
2022-10-01T19:29:22.537Z,98623.00
2022-10-01T19:32:25.186Z,98628.85
2022-10-01T19:35:48.659Z,98628.51
2022-10-01T19:38:51.481Z,98638.61
2022-10-01T19:42:23.975Z,98648.52
2022-10-01T19:45:46.723Z,98656.96
2022-10-01T19:49:11.346Z,98660.78
2022-10-01T19:52:18.256Z,98667.89
2022-10-01T19:55:21.479Z,98675.31
2022-10-01T19:58:24.056Z,98686.20
2022-10-01T20:01:39.467Z,98695.42
2022-10-01T20:04:51.824Z,98698.44
2022-10-01T20:08:01.583Z,98698.69
2022-10-01T20:11:13.694Z,98704.71
2022-10-01T20:14:40.263Z,98704.24
2022-10-01T20:17:55.771Z,98710.81
2022-10-01T20:21:06.867Z,98715.83
2022-10-01T20:24:29.035Z,98724.70
2022-10-01T20:27:55.652Z,98725.70
2022-10-01T20:31:16.458Z,98733.27
2022-10-01T20:34:50.952Z,98741.15
2022-10-01T20:38:07.102Z,98739.77
2022-10-01T20:41:18.194Z,98744.78
2022-10-01T20:44:38.396Z,98752.10
2022-10-01T20:47:47.827Z,98756.25
2022-10-01T20:50:54.115Z,98758.79
2022-10-01T20:54:00.297Z,98761.14
2022-10-01T20:57:20.630Z,98768.60
2022-10-01T21:00:25.020Z,98766.40
2022-10-01T21:03:38.515Z,98764.48
2022-10-01T21:06:44.494Z,98774.75
2022-10-01T21:09:50.410Z,98774.55
2022-10-01T21:13:08.227Z,98778.13
2022-10-01T21:16:32.916Z,98779.38
2022-10-01T21:20:21.117Z,98777.59
2022-10-01T21:23:36.014Z,98777.88
2022-10-01T21:27:04.698Z,98778.78
2022-10-01T21:30:20.392Z,98778.48
2022-10-01T21:33:30.342Z,98775.84
2022-10-01T21:36:50.432Z,98782.20
2022-10-01T21:40:19.770Z,98780.06
2022-10-01T21:43:40.326Z,98778.86
2022-10-01T21:46:42.575Z,98778.40
2022-10-01T21:49:59.322Z,98785.57
2022-10-01T21:53:25.491Z,98787.84
2022-10-01T21:56:30.539Z,98792.98
2022-10-01T21:59:49.936Z,98792.45
2022-10-01T22:03:10.659Z,98798.02
2022-10-01T22:06:18.246Z,98803.41
2022-10-01T22:09:46.783Z,98802.19
2022-10-01T22:12:50.311Z,98801.89
2022-10-01T22:15:59.389Z,98800.92
2022-10-01T22:19:07.099Z,98796.94
2022-10-01T22:22:15.223Z,98797.09
2022-10-01T22:25:17.116Z,98804.41
2022-10-01T22:28:23.036Z,98805.35
2022-10-01T22:31:28.214Z,98805.11
2022-10-01T22:34:34.694Z,98809.13
2022-10-01T22:37:44.390Z,98810.33
2022-10-01T22:40:58.836Z,98809.30
2022-10-01T22:44:05.037Z,98811.89
2022-10-01T22:47:26.126Z,98810.98
2022-10-01T22:51:13.209Z,98808.10
2022-10-01T22:54:35.306Z,98810.09
2022-10-01T22:57:52.733Z,98809.79
2022-10-01T23:01:06.129Z,98811.34
2022-10-01T23:04:36.514Z,98808.25
2022-10-01T23:08:04.098Z,98812.10
2022-10-01T23:11:20.326Z,98813.80
2022-10-01T23:14:40.258Z,98818.58
2022-10-01T23:17:51.298Z,98820.52
2022-10-01T23:21:17.344Z,98828.92
2022-10-01T23:24:31.899Z,98828.23
2022-10-01T23:27:55.027Z,98823.80
2022-10-01T23:31:27.693Z,98829.90
2022-10-01T23:34:53.980Z,98833.11
2022-10-01T23:38:20.777Z,98838.27
2022-10-01T23:41:33.471Z,98841.38
2022-10-01T23:44:52.172Z,98841.25
2022-10-01T23:48:14.197Z,98847.48
2022-10-01T23:51:25.905Z,98850.14
2022-10-01T23:54:37.324Z,98855.52
2022-10-01T23:57:40.731Z,98855.48
